sensor_id;sensor_type;location;lat;lon;timestamp;temperature;humidity
68556;HTU21D;55544;51.032;5.866;2023-03-18T00:01:18;14.69;64.07
68556;HTU21D;55544;51.032;5.866;2023-03-18T00:03:44;14.70;63.96
68556;HTU21D;55544;51.032;5.866;2023-03-18T00:06:14;14.72;63.76
68556;HTU21D;55544;51.032;5.866;2023-03-18T00:08:43;14.69;63.80
68556;HTU21D;55544;51.032;5.866;2023-03-18T00:11:13;14.71;63.70
68556;HTU21D;55544;51.032;5.866;2023-03-18T00:13:41;14.68;63.66
68556;HTU21D;55544;51.032;5.866;2023-03-18T00:16:10;14.60;63.95
68556;HTU21D;55544;51.032;5.866;2023-03-18T00:18:37;14.63;63.95
68556;HTU21D;55544;51.032;5.866;2023-03-18T00:21:04;14.60;64.06
68556;HTU21D;55544;51.032;5.866;2023-03-18T00:23:31;14.56;64.50
68556;HTU21D;55544;51.032;5.866;2023-03-18T00:25:58;14.54;64.89
68556;HTU21D;55544;51.032;5.866;2023-03-18T00:28:26;14.56;64.95
68556;HTU21D;55544;51.032;5.866;2023-03-18T00:30:53;14.63;64.98
68556;HTU21D;55544;51.032;5.866;2023-03-18T00:33:20;14.57;65.61
68556;HTU21D;55544;51.032;5.866;2023-03-18T00:35:46;14.48;67.01
68556;HTU21D;55544;51.032;5.866;2023-03-18T00:38:13;14.45;68.18
68556;HTU21D;55544;51.032;5.866;2023-03-18T00:40:47;14.29;69.84
68556;HTU21D;55544;51.032;5.866;2023-03-18T00:43:29;14.13;71.49
68556;HTU21D;55544;51.032;5.866;2023-03-18T00:45:59;14.03;72.59
68556;HTU21D;55544;51.032;5.866;2023-03-18T00:48:26;13.96;73.23
68556;HTU21D;55544;51.032;5.866;2023-03-18T00:50:52;13.98;73.93
68556;HTU21D;55544;51.032;5.866;2023-03-18T00:53:19;13.85;74.74
68556;HTU21D;55544;51.032;5.866;2023-03-18T00:55:46;13.83;75.16
68556;HTU21D;55544;51.032;5.866;2023-03-18T00:58:12;13.81;75.91
68556;HTU21D;55544;51.032;5.866;2023-03-18T01:00:39;13.86;76.08
68556;HTU21D;55544;51.032;5.866;2023-03-18T01:03:06;13.93;75.44
68556;HTU21D;55544;51.032;5.866;2023-03-18T01:05:33;13.93;75.34
68556;HTU21D;55544;51.032;5.866;2023-03-18T01:08:02;13.90;75.58
68556;HTU21D;55544;51.032;5.866;2023-03-18T01:10:29;13.84;75.88
68556;HTU21D;55544;51.032;5.866;2023-03-18T01:12:56;13.83;75.98
68556;HTU21D;55544;51.032;5.866;2023-03-18T01:15:23;13.77;76.10
68556;HTU21D;55544;51.032;5.866;2023-03-18T01:17:50;13.69;76.39
68556;HTU21D;55544;51.032;5.866;2023-03-18T01:20:18;13.66;76.65
68556;HTU21D;55544;51.032;5.866;2023-03-18T01:22:48;13.62;77.05
68556;HTU21D;55544;51.032;5.866;2023-03-18T01:25:15;13.56;77.36
68556;HTU21D;55544;51.032;5.866;2023-03-18T01:27:44;13.60;77.67
68556;HTU21D;55544;51.032;5.866;2023-03-18T01:30:11;13.58;77.85
68556;HTU21D;55544;51.032;5.866;2023-03-18T01:32:37;13.51;78.18
68556;HTU21D;55544;51.032;5.866;2023-03-18T01:35:04;13.49;78.48
68556;HTU21D;55544;51.032;5.866;2023-03-18T01:37:30;13.51;78.69
68556;HTU21D;55544;51.032;5.866;2023-03-18T01:40:08;13.52;78.76
68556;HTU21D;55544;51.032;5.866;2023-03-18T01:42:34;13.48;79.13
68556;HTU21D;55544;51.032;5.866;2023-03-18T01:45:23;13.47;79.43
68556;HTU21D;55544;51.032;5.866;2023-03-18T01:47:53;13.41;79.85
68556;HTU21D;55544;51.032;5.866;2023-03-18T01:50:31;13.38;80.11
68556;HTU21D;55544;51.032;5.866;2023-03-18T01:53:05;13.39;80.39
68556;HTU21D;55544;51.032;5.866;2023-03-18T01:55:32;13.45;80.11
68556;HTU21D;55544;51.032;5.866;2023-03-18T01:58:02;13.45;80.10
68556;HTU21D;55544;51.032;5.866;2023-03-18T02:00:28;13.46;79.87
68556;HTU21D;55544;51.032;5.866;2023-03-18T02:02:54;13.40;80.05
68556;HTU21D;55544;51.032;5.866;2023-03-18T02:05:23;13.36;80.20
68556;HTU21D;55544;51.032;5.866;2023-03-18T02:07:50;13.35;80.31
68556;HTU21D;55544;51.032;5.866;2023-03-18T02:10:26;13.33;80.33
68556;HTU21D;55544;51.032;5.866;2023-03-18T02:12:59;13.30;80.47
68556;HTU21D;55544;51.032;5.866;2023-03-18T02:15:30;13.32;80.28
68556;HTU21D;55544;51.032;5.866;2023-03-18T02:18:16;13.24;80.53
68556;HTU21D;55544;51.032;5.866;2023-03-18T02:26:03;13.26;80.36
68556;HTU21D;55544;51.032;5.866;2023-03-18T02:28:30;13.31;80.12
68556;HTU21D;55544;51.032;5.866;2023-03-18T02:31:03;13.29;80.14
68556;HTU21D;55544;51.032;5.866;2023-03-18T02:33:34;13.31;79.99
68556;HTU21D;55544;51.032;5.866;2023-03-18T02:36:12;13.33;80.03
68556;HTU21D;55544;51.032;5.866;2023-03-18T02:38:42;13.32;79.98
68556;HTU21D;55544;51.032;5.866;2023-03-18T02:41:20;13.35;79.78
68556;HTU21D;55544;51.032;5.866;2023-03-18T02:43:47;13.37;79.59
68556;HTU21D;55544;51.032;5.866;2023-03-18T02:48:43;13.38;79.19
68556;HTU21D;55544;51.032;5.866;2023-03-18T02:51:11;13.39;79.04
68556;HTU21D;55544;51.032;5.866;2023-03-18T02:53:38;13.39;79.07
68556;HTU21D;55544;51.032;5.866;2023-03-18T02:56:04;13.39;79.02
68556;HTU21D;55544;51.032;5.866;2023-03-18T02:58:31;13.43;78.90
68556;HTU21D;55544;51.032;5.866;2023-03-18T03:00:59;13.40;78.88
68556;HTU21D;55544;51.032;5.866;2023-03-18T03:03:26;13.40;78.81
68556;HTU21D;55544;51.032;5.866;2023-03-18T03:05:54;13.39;78.82
68556;HTU21D;55544;51.032;5.866;2023-03-18T03:08:22;13.38;78.83
68556;HTU21D;55544;51.032;5.866;2023-03-18T03:10:49;13.33;79.21
68556;HTU21D;55544;51.032;5.866;2023-03-18T03:13:18;13.35;79.39
68556;HTU21D;55544;51.032;5.866;2023-03-18T03:15:44;13.39;79.18
68556;HTU21D;55544;51.032;5.866;2023-03-18T03:18:11;13.38;79.04
68556;HTU21D;55544;51.032;5.866;2023-03-18T03:20:37;13.38;78.89
68556;HTU21D;55544;51.032;5.866;2023-03-18T03:23:06;13.32;79.10
68556;HTU21D;55544;51.032;5.866;2023-03-18T03:25:33;13.27;79.14
68556;HTU21D;55544;51.032;5.866;2023-03-18T03:28:01;13.25;79.26
68556;HTU21D;55544;51.032;5.866;2023-03-18T03:30:28;13.20;79.41
68556;HTU21D;55544;51.032;5.866;2023-03-18T03:32:55;13.17;79.60
68556;HTU21D;55544;51.032;5.866;2023-03-18T03:35:22;13.23;79.29
68556;HTU21D;55544;51.032;5.866;2023-03-18T03:37:48;13.14;79.72
68556;HTU21D;55544;51.032;5.866;2023-03-18T03:40:17;13.17;79.69
68556;HTU21D;55544;51.032;5.866;2023-03-18T03:42:44;13.16;79.77
68556;HTU21D;55544;51.032;5.866;2023-03-18T03:45:11;13.12;79.88
68556;HTU21D;55544;51.032;5.866;2023-03-18T03:47:39;13.09;80.14
68556;HTU21D;55544;51.032;5.866;2023-03-18T03:50:06;13.11;80.01
68556;HTU21D;55544;51.032;5.866;2023-03-18T03:52:32;13.03;80.32
68556;HTU21D;55544;51.032;5.866;2023-03-18T03:54:58;13.03;80.43
68556;HTU21D;55544;51.032;5.866;2023-03-18T03:57:25;13.03;80.68
68556;HTU21D;55544;51.032;5.866;2023-03-18T03:59:52;13.02;80.88
68556;HTU21D;55544;51.032;5.866;2023-03-18T04:02:22;13.07;80.73
68556;HTU21D;55544;51.032;5.866;2023-03-18T04:04:49;13.05;80.84
68556;HTU21D;55544;51.032;5.866;2023-03-18T04:07:23;13.05;81.06
68556;HTU21D;55544;51.032;5.866;2023-03-18T04:09:48;13.07;80.98
68556;HTU21D;55544;51.032;5.866;2023-03-18T04:12:14;13.10;81.08
68556;HTU21D;55544;51.032;5.866;2023-03-18T04:14:48;13.15;80.94
68556;HTU21D;55544;51.032;5.866;2023-03-18T04:17:14;13.09;81.08
68556;HTU21D;55544;51.032;5.866;2023-03-18T04:19:40;13.11;81.04
68556;HTU21D;55544;51.032;5.866;2023-03-18T04:22:06;13.12;80.98
68556;HTU21D;55544;51.032;5.866;2023-03-18T04:24:31;13.09;81.08
68556;HTU21D;55544;51.032;5.866;2023-03-18T04:26:57;13.10;81.11
68556;HTU21D;55544;51.032;5.866;2023-03-18T04:29:23;13.10;80.91
68556;HTU21D;55544;51.032;5.866;2023-03-18T04:31:50;13.15;80.69
68556;HTU21D;55544;51.032;5.866;2023-03-18T04:34:16;13.08;80.87
68556;HTU21D;55544;51.032;5.866;2023-03-18T04:36:42;13.03;80.86
68556;HTU21D;55544;51.032;5.866;2023-03-18T04:39:08;13.02;81.14
68556;HTU21D;55544;51.032;5.866;2023-03-18T04:41:34;13.02;81.10
68556;HTU21D;55544;51.032;5.866;2023-03-18T04:44:05;13.02;81.33
68556;HTU21D;55544;51.032;5.866;2023-03-18T04:46:40;13.01;81.35
68556;HTU21D;55544;51.032;5.866;2023-03-18T04:49:06;12.95;81.54
68556;HTU21D;55544;51.032;5.866;2023-03-18T04:51:33;13.00;81.43
68556;HTU21D;55544;51.032;5.866;2023-03-18T04:53:59;13.01;81.24
68556;HTU21D;55544;51.032;5.866;2023-03-18T04:56:29;13.00;81.10
68556;HTU21D;55544;51.032;5.866;2023-03-18T04:58:57;13.04;80.77
68556;HTU21D;55544;51.032;5.866;2023-03-18T05:01:26;12.99;80.81
68556;HTU21D;55544;51.032;5.866;2023-03-18T05:03:53;12.95;80.77
68556;HTU21D;55544;51.032;5.866;2023-03-18T05:06:23;12.93;80.70
68556;HTU21D;55544;51.032;5.866;2023-03-18T05:08:56;12.95;80.43
68556;HTU21D;55544;51.032;5.866;2023-03-18T05:11:27;12.89;80.48
68556;HTU21D;55544;51.032;5.866;2023-03-18T05:13:53;12.87;80.31
68556;HTU21D;55544;51.032;5.866;2023-03-18T05:16:19;12.85;80.41
68556;HTU21D;55544;51.032;5.866;2023-03-18T05:18:47;12.85;80.20
68556;HTU21D;55544;51.032;5.866;2023-03-18T05:21:13;12.85;80.26
68556;HTU21D;55544;51.032;5.866;2023-03-18T05:23:40;12.74;80.64
68556;HTU21D;55544;51.032;5.866;2023-03-18T05:26:07;12.77;80.43
68556;HTU21D;55544;51.032;5.866;2023-03-18T05:28:37;12.76;80.59
68556;HTU21D;55544;51.032;5.866;2023-03-18T05:31:18;12.75;80.32
68556;HTU21D;55544;51.032;5.866;2023-03-18T05:33:45;12.74;80.41
68556;HTU21D;55544;51.032;5.866;2023-03-18T05:36:12;12.74;80.13
68556;HTU21D;55544;51.032;5.866;2023-03-18T05:38:50;12.74;79.94
68556;HTU21D;55544;51.032;5.866;2023-03-18T05:41:16;12.69;80.02
68556;HTU21D;55544;51.032;5.866;2023-03-18T05:43:42;12.64;80.15
68556;HTU21D;55544;51.032;5.866;2023-03-18T05:46:09;12.60;80.14
68556;HTU21D;55544;51.032;5.866;2023-03-18T05:48:54;12.55;80.10
68556;HTU21D;55544;51.032;5.866;2023-03-18T05:51:22;12.56;80.17
68556;HTU21D;55544;51.032;5.866;2023-03-18T05:53:48;12.51;80.28
68556;HTU21D;55544;51.032;5.866;2023-03-18T05:56:19;12.45;80.66
68556;HTU21D;55544;51.032;5.866;2023-03-18T05:58:49;12.43;80.89
68556;HTU21D;55544;51.032;5.866;2023-03-18T06:01:25;12.42;80.84
68556;HTU21D;55544;51.032;5.866;2023-03-18T06:03:53;12.41;80.85
68556;HTU21D;55544;51.032;5.866;2023-03-18T06:06:19;12.41;80.82
68556;HTU21D;55544;51.032;5.866;2023-03-18T06:08:46;12.37;80.84
68556;HTU21D;55544;51.032;5.866;2023-03-18T06:11:13;12.40;80.74
68556;HTU21D;55544;51.032;5.866;2023-03-18T06:13:39;12.42;80.77
68556;HTU21D;55544;51.032;5.866;2023-03-18T06:16:06;12.42;80.70
68556;HTU21D;55544;51.032;5.866;2023-03-18T06:18:33;12.37;80.79
68556;HTU21D;55544;51.032;5.866;2023-03-18T06:20:59;12.40;80.72
68556;HTU21D;55544;51.032;5.866;2023-03-18T06:23:25;12.38;80.69
68556;HTU21D;55544;51.032;5.866;2023-03-18T06:25:52;12.38;80.74
68556;HTU21D;55544;51.032;5.866;2023-03-18T06:28:22;12.34;80.90
68556;HTU21D;55544;51.032;5.866;2023-03-18T06:30:49;12.36;80.91
68556;HTU21D;55544;51.032;5.866;2023-03-18T06:33:15;12.38;80.98
68556;HTU21D;55544;51.032;5.866;2023-03-18T06:35:41;12.46;80.69
68556;HTU21D;55544;51.032;5.866;2023-03-18T06:38:06;12.48;80.36
68556;HTU21D;55544;51.032;5.866;2023-03-18T06:40:35;12.48;80.40
68556;HTU21D;55544;51.032;5.866;2023-03-18T06:43:02;12.46;80.59
68556;HTU21D;55544;51.032;5.866;2023-03-18T06:45:37;12.47;80.64
68556;HTU21D;55544;51.032;5.866;2023-03-18T06:48:05;12.49;80.51
68556;HTU21D;55544;51.032;5.866;2023-03-18T06:50:34;12.55;80.27
68556;HTU21D;55544;51.032;5.866;2023-03-18T06:53:00;12.50;80.41
68556;HTU21D;55544;51.032;5.866;2023-03-18T06:55:29;12.50;80.51
68556;HTU21D;55544;51.032;5.866;2023-03-18T06:57:57;12.59;80.17
68556;HTU21D;55544;51.032;5.866;2023-03-18T07:00:31;12.59;80.28
68556;HTU21D;55544;51.032;5.866;2023-03-18T07:02:57;12.64;80.37
68556;HTU21D;55544;51.032;5.866;2023-03-18T07:05:26;12.70;80.36
68556;HTU21D;55544;51.032;5.866;2023-03-18T07:07:51;12.75;80.28
68556;HTU21D;55544;51.032;5.866;2023-03-18T07:10:21;12.79;80.20
68556;HTU21D;55544;51.032;5.866;2023-03-18T07:12:48;12.85;79.81
68556;HTU21D;55544;51.032;5.866;2023-03-18T07:15:17;12.91;79.60
68556;HTU21D;55544;51.032;5.866;2023-03-18T07:17:46;12.94;79.14
68556;HTU21D;55544;51.032;5.866;2023-03-18T07:20:13;13.01;78.81
68556;HTU21D;55544;51.032;5.866;2023-03-18T07:22:41;12.99;78.59
68556;HTU21D;55544;51.032;5.866;2023-03-18T07:25:08;13.00;78.55
68556;HTU21D;55544;51.032;5.866;2023-03-18T07:27:35;12.99;78.46
68556;HTU21D;55544;51.032;5.866;2023-03-18T07:30:01;13.00;78.47
68556;HTU21D;55544;51.032;5.866;2023-03-18T07:32:27;13.02;78.27
68556;HTU21D;55544;51.032;5.866;2023-03-18T07:34:55;13.03;78.36
68556;HTU21D;55544;51.032;5.866;2023-03-18T07:37:22;13.02;78.43
68556;HTU21D;55544;51.032;5.866;2023-03-18T07:39:48;13.02;78.77
68556;HTU21D;55544;51.032;5.866;2023-03-18T07:42:14;13.09;78.64
68556;HTU21D;55544;51.032;5.866;2023-03-18T07:44:44;13.20;78.41
68556;HTU21D;55544;51.032;5.866;2023-03-18T07:47:10;13.25;78.27
68556;HTU21D;55544;51.032;5.866;2023-03-18T07:49:36;13.29;78.55
68556;HTU21D;55544;51.032;5.866;2023-03-18T07:52:02;13.32;78.48
68556;HTU21D;55544;51.032;5.866;2023-03-18T07:54:28;13.39;78.26
68556;HTU21D;55544;51.032;5.866;2023-03-18T07:56:54;13.55;77.14
68556;HTU21D;55544;51.032;5.866;2023-03-18T07:59:19;13.56;77.26
68556;HTU21D;55544;51.032;5.866;2023-03-18T08:01:45;13.63;77.39
68556;HTU21D;55544;51.032;5.866;2023-03-18T08:04:11;13.70;77.33
68556;HTU21D;55544;51.032;5.866;2023-03-18T08:06:37;13.80;76.81
68556;HTU21D;55544;51.032;5.866;2023-03-18T08:09:04;13.86;76.85
68556;HTU21D;55544;51.032;5.866;2023-03-18T08:11:30;14.01;76.79
68556;HTU21D;55544;51.032;5.866;2023-03-18T08:13:58;14.19;75.77
68556;HTU21D;55544;51.032;5.866;2023-03-18T08:16:24;14.26;75.85
68556;HTU21D;55544;51.032;5.866;2023-03-18T08:18:50;14.42;75.86
68556;HTU21D;55544;51.032;5.866;2023-03-18T08:21:16;14.63;75.28
68556;HTU21D;55544;51.032;5.866;2023-03-18T08:23:42;14.81;75.44
68556;HTU21D;55544;51.032;5.866;2023-03-18T08:26:08;14.99;73.79
68556;HTU21D;55544;51.032;5.866;2023-03-18T08:28:34;14.96;73.59
68556;HTU21D;55544;51.032;5.866;2023-03-18T08:30:59;15.10;74.13
68556;HTU21D;55544;51.032;5.866;2023-03-18T08:33:26;15.24;72.31
68556;HTU21D;55544;51.032;5.866;2023-03-18T08:35:54;15.36;72.86
68556;HTU21D;55544;51.032;5.866;2023-03-18T08:38:21;15.42;71.14
68556;HTU21D;55544;51.032;5.866;2023-03-18T08:40:48;15.40;71.14
68556;HTU21D;55544;51.032;5.866;2023-03-18T08:43:13;15.40;70.72
68556;HTU21D;55544;51.032;5.866;2023-03-18T08:45:39;15.38;70.85
68556;HTU21D;55544;51.032;5.866;2023-03-18T08:48:05;15.41;71.35
68556;HTU21D;55544;51.032;5.866;2023-03-18T08:50:34;15.51;71.35
68556;HTU21D;55544;51.032;5.866;2023-03-18T08:53:01;15.61;70.94
68556;HTU21D;55544;51.032;5.866;2023-03-18T08:55:34;15.71;70.65
68556;HTU21D;55544;51.032;5.866;2023-03-18T08:58:03;15.85;70.17
68556;HTU21D;55544;51.032;5.866;2023-03-18T09:00:33;15.88;70.04
68556;HTU21D;55544;51.032;5.866;2023-03-18T09:02:59;16.01;70.21
68556;HTU21D;55544;51.032;5.866;2023-03-18T09:05:25;16.18;69.16
68556;HTU21D;55544;51.032;5.866;2023-03-18T09:07:51;16.22;69.10
68556;HTU21D;55544;51.032;5.866;2023-03-18T09:10:18;16.34;69.20
68556;HTU21D;55544;51.032;5.866;2023-03-18T09:12:44;16.42;68.29
68556;HTU21D;55544;51.032;5.866;2023-03-18T09:15:12;16.47;67.09
68556;HTU21D;55544;51.032;5.866;2023-03-18T09:17:40;16.50;67.04
68556;HTU21D;55544;51.032;5.866;2023-03-18T09:20:09;16.36;67.31
68556;HTU21D;55544;51.032;5.866;2023-03-18T09:22:35;16.44;67.68
68556;HTU21D;55544;51.032;5.866;2023-03-18T09:25:01;16.50;67.20
68556;HTU21D;55544;51.032;5.866;2023-03-18T09:27:27;16.60;68.31
68556;HTU21D;55544;51.032;5.866;2023-03-18T09:29:53;16.80;67.35
68556;HTU21D;55544;51.032;5.866;2023-03-18T09:32:18;16.90;67.39
68556;HTU21D;55544;51.032;5.866;2023-03-18T09:34:44;17.13;65.63
68556;HTU21D;55544;51.032;5.866;2023-03-18T09:37:11;17.25;64.92
68556;HTU21D;55544;51.032;5.866;2023-03-18T09:39:39;17.32;64.53
68556;HTU21D;55544;51.032;5.866;2023-03-18T09:44:35;17.32;64.18
68556;HTU21D;55544;51.032;5.866;2023-03-18T09:49:55;17.51;64.72
68556;HTU21D;55544;51.032;5.866;2023-03-18T09:52:41;17.61;63.61
68556;HTU21D;55544;51.032;5.866;2023-03-18T09:55:16;17.63;62.88
68556;HTU21D;55544;51.032;5.866;2023-03-18T09:57:49;17.68;62.44
68556;HTU21D;55544;51.032;5.866;2023-03-18T10:03:00;17.89;62.38
68556;HTU21D;55544;51.032;5.866;2023-03-18T10:05:41;17.91;62.33
68556;HTU21D;55544;51.032;5.866;2023-03-18T10:10:46;18.36;59.62
68556;HTU21D;55544;51.032;5.866;2023-03-18T10:13:20;18.28;59.22
68556;HTU21D;55544;51.032;5.866;2023-03-18T10:15:56;18.46;59.18
68556;HTU21D;55544;51.032;5.866;2023-03-18T10:18:38;18.61;59.08
68556;HTU21D;55544;51.032;5.866;2023-03-18T10:21:49;18.71;60.32
68556;HTU21D;55544;51.032;5.866;2023-03-18T10:24:29;18.87;58.38
68556;HTU21D;55544;51.032;5.866;2023-03-18T10:27:13;18.95;58.13
68556;HTU21D;55544;51.032;5.866;2023-03-18T10:32:44;18.81;57.89
68556;HTU21D;55544;51.032;5.866;2023-03-18T10:35:36;18.61;58.16
68556;HTU21D;55544;51.032;5.866;2023-03-18T10:38:32;18.51;57.64
68556;HTU21D;55544;51.032;5.866;2023-03-18T10:40:58;18.47;58.75
68556;HTU21D;55544;51.032;5.866;2023-03-18T10:43:28;18.32;58.25
68556;HTU21D;55544;51.032;5.866;2023-03-18T10:46:04;18.15;59.16
68556;HTU21D;55544;51.032;5.866;2023-03-18T10:48:42;18.22;60.48
68556;HTU21D;55544;51.032;5.866;2023-03-18T10:54:42;18.40;58.74
68556;HTU21D;55544;51.032;5.866;2023-03-18T10:56:42;18.41;58.93
68556;HTU21D;55544;51.032;5.866;2023-03-18T10:59:21;18.49;57.68
68556;HTU21D;55544;51.032;5.866;2023-03-18T11:01:53;18.36;58.06
68556;HTU21D;55544;51.032;5.866;2023-03-18T11:04:23;18.19;57.37
68556;HTU21D;55544;51.032;5.866;2023-03-18T11:06:57;18.07;57.95
68556;HTU21D;55544;51.032;5.866;2023-03-18T11:09:31;17.85;57.19
68556;HTU21D;55544;51.032;5.866;2023-03-18T11:12:12;17.66;58.12
68556;HTU21D;55544;51.032;5.866;2023-03-18T11:14:38;17.75;57.60
68556;HTU21D;55544;51.032;5.866;2023-03-18T11:17:33;17.62;58.27
68556;HTU21D;55544;51.032;5.866;2023-03-18T11:22:48;17.52;58.21
68556;HTU21D;55544;51.032;5.866;2023-03-18T11:25:22;17.48;58.21
68556;HTU21D;55544;51.032;5.866;2023-03-18T11:28:11;17.44;58.99
68556;HTU21D;55544;51.032;5.866;2023-03-18T11:30:47;17.33;58.90
68556;HTU21D;55544;51.032;5.866;2023-03-18T11:33:15;17.31;58.51
68556;HTU21D;55544;51.032;5.866;2023-03-18T11:35:53;17.23;57.45
68556;HTU21D;55544;51.032;5.866;2023-03-18T11:38:25;17.08;58.84
68556;HTU21D;55544;51.032;5.866;2023-03-18T11:41:14;17.05;58.79
68556;HTU21D;55544;51.032;5.866;2023-03-18T11:44:17;16.98;59.18
68556;HTU21D;55544;51.032;5.866;2023-03-18T11:46:53;17.13;58.99
68556;HTU21D;55544;51.032;5.866;2023-03-18T11:49:23;17.15;59.56
68556;HTU21D;55544;51.032;5.866;2023-03-18T11:55:03;17.13;58.89
68556;HTU21D;55544;51.032;5.866;2023-03-18T12:00:28;17.03;59.85
68556;HTU21D;55544;51.032;5.866;2023-03-18T12:08:57;16.71;62.50
68556;HTU21D;55544;51.032;5.866;2023-03-18T12:14:30;16.59;63.79
68556;HTU21D;55544;51.032;5.866;2023-03-18T12:19:59;16.48;64.46
68556;HTU21D;55544;51.032;5.866;2023-03-18T12:22:36;16.43;64.72
68556;HTU21D;55544;51.032;5.866;2023-03-18T12:36:06;16.57;65.53
68556;HTU21D;55544;51.032;5.866;2023-03-18T12:44:21;16.44;65.70
68556;HTU21D;55544;51.032;5.866;2023-03-18T12:49:36;16.52;66.08
68556;HTU21D;55544;51.032;5.866;2023-03-18T12:54:35;16.59;65.24
68556;HTU21D;55544;51.032;5.866;2023-03-18T12:57:09;16.64;65.72
68556;HTU21D;55544;51.032;5.866;2023-03-18T12:59:47;16.78;66.10
68556;HTU21D;55544;51.032;5.866;2023-03-18T13:05:05;17.10;64.93
68556;HTU21D;55544;51.032;5.866;2023-03-18T13:10:22;17.47;63.45
68556;HTU21D;55544;51.032;5.866;2023-03-18T13:12:55;17.83;62.84
68556;HTU21D;55544;51.032;5.866;2023-03-18T13:15:37;18.43;61.02
68556;HTU21D;55544;51.032;5.866;2023-03-18T13:18:44;18.96;59.83
68556;HTU21D;55544;51.032;5.866;2023-03-18T13:21:19;19.27;57.62
68556;HTU21D;55544;51.032;5.866;2023-03-18T13:29:35;20.10;55.44
68556;HTU21D;55544;51.032;5.866;2023-03-18T13:32:11;19.97;54.10
68556;HTU21D;55544;51.032;5.866;2023-03-18T13:38:09;19.55;55.80
68556;HTU21D;55544;51.032;5.866;2023-03-18T13:43:27;19.13;55.84
68556;HTU21D;55544;51.032;5.866;2023-03-18T13:45:57;18.69;57.00
68556;HTU21D;55544;51.032;5.866;2023-03-18T13:48:32;18.32;57.27
68556;HTU21D;55544;51.032;5.866;2023-03-18T13:51:17;18.20;58.83
68556;HTU21D;55544;51.032;5.866;2023-03-18T13:53:46;18.17;59.94
68556;HTU21D;55544;51.032;5.866;2023-03-18T13:56:44;18.43;58.84
68556;HTU21D;55544;51.032;5.866;2023-03-18T14:04:54;18.22;58.96
68556;HTU21D;55544;51.032;5.866;2023-03-18T14:07:23;18.12;59.41
68556;HTU21D;55544;51.032;5.866;2023-03-18T14:14:52;18.23;58.16
68556;HTU21D;55544;51.032;5.866;2023-03-18T14:17:24;18.25;57.77
68556;HTU21D;55544;51.032;5.866;2023-03-18T14:19:55;18.39;57.38
68556;HTU21D;55544;51.032;5.866;2023-03-18T14:22:34;18.50;57.11
68556;HTU21D;55544;51.032;5.866;2023-03-18T14:27:57;18.86;56.00
68556;HTU21D;55544;51.032;5.866;2023-03-18T14:33:02;19.25;56.93
68556;HTU21D;55544;51.032;5.866;2023-03-18T14:38:23;19.68;53.26
68556;HTU21D;55544;51.032;5.866;2023-03-18T14:40:51;19.88;52.61
68556;HTU21D;55544;51.032;5.866;2023-03-18T14:45:47;20.35;50.97
68556;HTU21D;55544;51.032;5.866;2023-03-18T14:48:33;20.34;51.30
68556;HTU21D;55544;51.032;5.866;2023-03-18T14:51:04;20.34;50.83
68556;HTU21D;55544;51.032;5.866;2023-03-18T14:53:59;20.41;50.86
68556;HTU21D;55544;51.032;5.866;2023-03-18T14:56:34;20.44;49.39
68556;HTU21D;55544;51.032;5.866;2023-03-18T14:59:01;20.43;49.52
68556;HTU21D;55544;51.032;5.866;2023-03-18T15:01:36;20.41;48.74
68556;HTU21D;55544;51.032;5.866;2023-03-18T15:04:05;20.35;49.85
68556;HTU21D;55544;51.032;5.866;2023-03-18T15:06:33;20.33;49.92
68556;HTU21D;55544;51.032;5.866;2023-03-18T15:09:08;20.40;48.99
68556;HTU21D;55544;51.032;5.866;2023-03-18T15:11:39;20.35;49.62
68556;HTU21D;55544;51.032;5.866;2023-03-18T15:14:30;20.35;48.67
68556;HTU21D;55544;51.032;5.866;2023-03-18T15:17:01;20.33;49.28
68556;HTU21D;55544;51.032;5.866;2023-03-18T15:19:29;20.26;49.49
68556;HTU21D;55544;51.032;5.866;2023-03-18T15:22:01;20.19;49.50
68556;HTU21D;55544;51.032;5.866;2023-03-18T15:24:30;20.17;48.98
68556;HTU21D;55544;51.032;5.866;2023-03-18T15:27:00;20.25;48.15
68556;HTU21D;55544;51.032;5.866;2023-03-18T15:29:31;20.21;48.38
68556;HTU21D;55544;51.032;5.866;2023-03-18T15:32:32;20.13;48.38
68556;HTU21D;55544;51.032;5.866;2023-03-18T15:42:48;19.90;49.57
68556;HTU21D;55544;51.032;5.866;2023-03-18T15:45:19;19.81;49.03
68556;HTU21D;55544;51.032;5.866;2023-03-18T15:47:46;19.70;49.31
68556;HTU21D;55544;51.032;5.866;2023-03-18T15:50:27;19.45;49.94
68556;HTU21D;55544;51.032;5.866;2023-03-18T15:53:21;19.18;50.11
68556;HTU21D;55544;51.032;5.866;2023-03-18T15:55:56;19.14;50.95
68556;HTU21D;55544;51.032;5.866;2023-03-18T16:00:52;19.53;51.33
68556;HTU21D;55544;51.032;5.866;2023-03-18T16:03:21;19.79;50.42
68556;HTU21D;55544;51.032;5.866;2023-03-18T16:05:49;19.91;49.42
68556;HTU21D;55544;51.032;5.866;2023-03-18T16:08:18;20.06;49.40
68556;HTU21D;55544;51.032;5.866;2023-03-18T16:10:46;20.20;49.27
68556;HTU21D;55544;51.032;5.866;2023-03-18T16:13:21;20.33;48.55
68556;HTU21D;55544;51.032;5.866;2023-03-18T16:15:48;20.35;48.12
68556;HTU21D;55544;51.032;5.866;2023-03-18T16:18:14;20.36;47.30
68556;HTU21D;55544;51.032;5.866;2023-03-18T16:20:40;20.30;48.18
68556;HTU21D;55544;51.032;5.866;2023-03-18T16:23:10;20.33;47.87
68556;HTU21D;55544;51.032;5.866;2023-03-18T16:25:36;20.29;47.11
68556;HTU21D;55544;51.032;5.866;2023-03-18T16:28:02;20.19;47.37
68556;HTU21D;55544;51.032;5.866;2023-03-18T16:30:30;20.11;46.87
68556;HTU21D;55544;51.032;5.866;2023-03-18T16:32:57;20.00;47.12
68556;HTU21D;55544;51.032;5.866;2023-03-18T16:35:26;19.91;46.86
68556;HTU21D;55544;51.032;5.866;2023-03-18T16:37:55;19.76;47.47
68556;HTU21D;55544;51.032;5.866;2023-03-18T16:40:26;19.67;47.67
68556;HTU21D;55544;51.032;5.866;2023-03-18T16:42:53;19.61;48.16
68556;HTU21D;55544;51.032;5.866;2023-03-18T16:45:27;19.41;48.12
68556;HTU21D;55544;51.032;5.866;2023-03-18T16:47:57;19.20;48.89
68556;HTU21D;55544;51.032;5.866;2023-03-18T16:50:34;19.08;49.62
68556;HTU21D;55544;51.032;5.866;2023-03-18T16:53:00;18.92;50.05
68556;HTU21D;55544;51.032;5.866;2023-03-18T16:55:27;18.83;51.06
68556;HTU21D;55544;51.032;5.866;2023-03-18T16:57:58;18.78;50.80
68556;HTU21D;55544;51.032;5.866;2023-03-18T17:00:30;18.72;51.36
68556;HTU21D;55544;51.032;5.866;2023-03-18T17:02:57;18.73;51.83
68556;HTU21D;55544;51.032;5.866;2023-03-18T17:05:24;18.81;52.35
68556;HTU21D;55544;51.032;5.866;2023-03-18T17:07:50;18.82;52.46
68556;HTU21D;55544;51.032;5.866;2023-03-18T17:10:20;18.89;52.36
68556;HTU21D;55544;51.032;5.866;2023-03-18T17:13:06;18.94;51.88
68556;HTU21D;55544;51.032;5.866;2023-03-18T17:15:36;18.92;50.11
68556;HTU21D;55544;51.032;5.866;2023-03-18T17:18:12;18.78;49.95
68556;HTU21D;55544;51.032;5.866;2023-03-18T17:20:38;18.55;49.99
68556;HTU21D;55544;51.032;5.866;2023-03-18T17:23:06;18.32;50.52
68556;HTU21D;55544;51.032;5.866;2023-03-18T17:25:34;18.21;51.24
68556;HTU21D;55544;51.032;5.866;2023-03-18T17:28:03;18.21;50.66
68556;HTU21D;55544;51.032;5.866;2023-03-18T17:30:35;18.13;50.54